Time;durP1;ratioP1;P1;durP2;ratioP2;P2;SDS_P1;SDS_P2;PMS_P1;PMS_P2;Temp;Humidity;BMP_temperature;BMP_pressure;BME280_temperature;BME280_humidity;BME280_pressure;Samples;Min_cycle;Max_cycle;Signal;HPM_P1;HPM_P2
2021/12/20 00:02:08;;;;;;;;;;;5.40;99.90;;;;;;4948814;28;20134;-70
2021/12/20 00:04:35;;;;;;;;;;;5.50;99.90;;;;;;4949737;28;20154;-70
2021/12/20 00:07:02;;;;;;;;;;;5.50;99.90;;;;;;4950481;28;20060;-70
2021/12/20 00:09:30;;;;;;;;;;;5.50;99.90;;;;;;4949555;28;20060;-70
2021/12/20 00:11:57;;;;;;;;;;;5.50;99.90;;;;;;4951275;28;20182;-70
2021/12/20 00:14:25;;;;;;;;;;;5.50;99.90;;;;;;4950729;28;20172;-70
2021/12/20 00:16:53;;;;;;;;;;;5.50;99.90;;;;;;4950521;28;20069;-70
2021/12/20 00:19:20;;;;;;;;;;;5.50;99.90;;;;;;4950047;28;21045;-70
2021/12/20 00:21:47;;;;;;;;;;;5.50;99.90;;;;;;4950355;28;20060;-70
2021/12/20 00:24:14;;;;;;;;;;;5.50;99.90;;;;;;4950404;28;20068;-70
2021/12/20 00:26:41;;;;;;;;;;;5.50;99.90;;;;;;4950534;28;20068;-70
2021/12/20 00:29:08;;;;;;;;;;;5.40;99.90;;;;;;4950604;28;21121;-70
2021/12/20 00:31:37;;;;;;;;;;;5.40;99.90;;;;;;4950434;28;20077;-70
2021/12/20 00:34:04;;;;;;;;;;;5.50;99.90;;;;;;4950342;28;20070;-70
2021/12/20 00:36:31;;;;;;;;;;;5.40;99.90;;;;;;4949689;28;20199;-70
2021/12/20 00:41:43;;;;;;;;;;;5.40;99.90;;;;;;4950877;28;20073;-70
2021/12/20 00:44:10;;;;;;;;;;;5.40;99.90;;;;;;4950645;28;21174;-71
2021/12/20 00:46:39;;;;;;;;;;;5.40;99.90;;;;;;4949916;28;21028;-71
2021/12/20 00:49:06;;;;;;;;;;;5.40;99.90;;;;;;4949106;28;21138;-70
2021/12/20 00:51:33;;;;;;;;;;;5.40;99.90;;;;;;4950977;28;21150;-71
2021/12/20 00:54:00;;;;;;;;;;;5.40;99.90;;;;;;4949865;28;20084;-70
2021/12/20 00:56:27;;;;;;;;;;;5.40;99.90;;;;;;4949979;28;21133;-70
2021/12/20 00:58:54;;;;;;;;;;;5.40;99.90;;;;;;4949081;28;20169;-70
2021/12/20 01:01:22;;;;;;;;;;;5.40;99.90;;;;;;4949637;28;20175;-71
2021/12/20 01:03:50;;;;;;;;;;;5.40;99.90;;;;;;4947877;28;20085;-70
2021/12/20 01:06:17;;;;;;;;;;;5.40;99.90;;;;;;4949333;28;20059;-70
2021/12/20 01:08:46;;;;;;;;;;;5.40;99.90;;;;;;4947890;28;20069;-70
2021/12/20 01:11:20;;;;;;;;;;;5.40;99.90;;;;;;4950170;28;20274;-70
2021/12/20 01:13:47;;;;;;;;;;;5.40;99.90;;;;;;4949065;28;20198;-70
2021/12/20 01:16:15;;;;;;;;;;;5.40;99.90;;;;;;4948765;28;20192;-70
2021/12/20 01:18:42;;;;;;;;;;;5.40;99.90;;;;;;4949374;28;20060;-70
2021/12/20 01:21:11;;;;;;;;;;;5.40;99.90;;;;;;4949628;28;20067;-70
2021/12/20 01:23:39;;;;;;;;;;;5.40;99.90;;;;;;4949022;28;20068;-70
2021/12/20 01:26:06;;;;;;;;;;;5.40;99.90;;;;;;4949027;28;20276;-70
2021/12/20 01:28:33;;;;;;;;;;;5.40;99.90;;;;;;4948354;28;21156;-72
2021/12/20 01:31:01;;;;;;;;;;;5.40;99.90;;;;;;4949755;28;20106;-70
2021/12/20 01:33:28;;;;;;;;;;;5.40;99.90;;;;;;4949567;28;20060;-70
2021/12/20 01:35:56;;;;;;;;;;;5.40;99.90;;;;;;4948867;28;20077;-70
2021/12/20 01:38:25;;;;;;;;;;;5.40;99.90;;;;;;4948719;28;20150;-70
2021/12/20 01:40:53;;;;;;;;;;;5.40;99.90;;;;;;4950064;28;20094;-70
2021/12/20 01:43:20;;;;;;;;;;;5.40;99.90;;;;;;4949161;28;20085;-70
2021/12/20 01:45:49;;;;;;;;;;;5.30;99.90;;;;;;4948132;28;21018;-71
2021/12/20 01:48:19;;;;;;;;;;;5.30;99.90;;;;;;4948624;28;20197;-70
2021/12/20 01:53:37;;;;;;;;;;;5.30;99.90;;;;;;4943950;28;20049;-70
2021/12/20 01:56:05;;;;;;;;;;;5.30;99.90;;;;;;4948009;28;20163;-70
2021/12/20 01:58:32;;;;;;;;;;;5.30;99.90;;;;;;4949066;28;20253;-70
2021/12/20 02:01:18;;;;;;;;;;;5.30;99.90;;;;;;4948605;28;20058;-70
2021/12/20 02:03:48;;;;;;;;;;;5.30;99.90;;;;;;4947820;28;21127;-70
2021/12/20 02:06:22;;;;;;;;;;;5.30;99.90;;;;;;4949453;28;20067;-71
2021/12/20 02:08:51;;;;;;;;;;;5.30;99.90;;;;;;4949812;28;20073;-70
2021/12/20 02:11:19;;;;;;;;;;;5.30;99.90;;;;;;4949843;28;21042;-70
2021/12/20 02:13:47;;;;;;;;;;;5.30;99.90;;;;;;4950394;28;20171;-71
2021/12/20 02:16:14;;;;;;;;;;;5.30;99.90;;;;;;4950406;28;20109;-70
2021/12/20 02:18:41;;;;;;;;;;;5.30;99.90;;;;;;4950130;28;21088;-70
2021/12/20 02:21:10;;;;;;;;;;;5.30;99.90;;;;;;4948564;28;20052;-71
2021/12/20 02:23:37;;;;;;;;;;;5.30;99.90;;;;;;4950244;28;20051;-71
2021/12/20 02:26:05;;;;;;;;;;;5.30;99.90;;;;;;4950045;28;20075;-71
2021/12/20 02:28:37;;;;;;;;;;;5.30;99.90;;;;;;4948853;28;20086;-71
2021/12/20 02:39:22;;;;;;;;;;;5.30;99.90;;;;;;4948021;28;20076;-70
2021/12/20 02:41:50;;;;;;;;;;;5.30;99.90;;;;;;4948749;28;21238;-70
2021/12/20 02:44:18;;;;;;;;;;;5.30;99.90;;;;;;4947979;28;20082;-70
2021/12/20 02:46:50;;;;;;;;;;;5.30;99.90;;;;;;4947724;28;20134;-70
2021/12/20 02:49:19;;;;;;;;;;;5.20;99.90;;;;;;4947711;28;20186;-70
2021/12/20 02:51:49;;;;;;;;;;;5.30;99.90;;;;;;4947871;28;20077;-70
2021/12/20 02:54:16;;;;;;;;;;;5.30;99.90;;;;;;4947985;28;20080;-70
2021/12/20 02:56:43;;;;;;;;;;;5.30;99.90;;;;;;4947966;28;20142;-71
2021/12/20 02:59:11;;;;;;;;;;;5.30;99.90;;;;;;4947689;28;20121;-71
2021/12/20 03:01:39;;;;;;;;;;;5.30;99.90;;;;;;4948070;28;20074;-71
2021/12/20 03:04:07;;;;;;;;;;;5.20;99.90;;;;;;4947197;28;20067;-70
2021/12/20 03:06:39;;;;;;;;;;;5.20;99.90;;;;;;4948235;28;20076;-70
2021/12/20 03:09:10;;;;;;;;;;;5.20;99.90;;;;;;4947354;28;20150;-71
2021/12/20 03:11:37;;;;;;;;;;;5.20;99.90;;;;;;4948210;28;20090;-70
2021/12/20 03:14:14;;;;;;;;;;;5.20;99.90;;;;;;4947653;28;20089;-70
2021/12/20 03:16:41;;;;;;;;;;;5.20;99.90;;;;;;4947072;28;20150;-70
2021/12/20 03:19:08;;;;;;;;;;;5.20;99.90;;;;;;4947551;28;20069;-70
2021/12/20 03:21:36;;;;;;;;;;;5.20;99.90;;;;;;4947520;28;20082;-71
2021/12/20 03:24:03;;;;;;;;;;;5.20;99.90;;;;;;4947702;28;20052;-70
2021/12/20 03:26:32;;;;;;;;;;;5.20;99.90;;;;;;4947016;28;20060;-71
2021/12/20 03:29:00;;;;;;;;;;;5.20;99.90;;;;;;4947178;28;20079;-71
2021/12/20 03:31:27;;;;;;;;;;;5.20;99.90;;;;;;4946988;28;20084;-70
2021/12/20 03:33:54;;;;;;;;;;;5.20;99.90;;;;;;4947553;28;20080;-70
2021/12/20 03:36:21;;;;;;;;;;;5.20;99.90;;;;;;4947182;28;20069;-71
2021/12/20 03:38:48;;;;;;;;;;;5.10;99.90;;;;;;4946888;28;20130;-70
2021/12/20 03:41:16;;;;;;;;;;;5.10;99.90;;;;;;4947929;28;20060;-71
2021/12/20 03:43:44;;;;;;;;;;;5.10;99.90;;;;;;4947303;28;20163;-70
2021/12/20 03:46:12;;;;;;;;;;;5.10;99.90;;;;;;4947729;28;21070;-70
2021/12/20 03:48:39;;;;;;;;;;;5.10;99.90;;;;;;4947696;28;20052;-70
2021/12/20 03:51:07;;;;;;;;;;;5.10;99.90;;;;;;4947834;28;20077;-70
2021/12/20 03:53:35;;;;;;;;;;;5.10;99.90;;;;;;4947024;28;20068;-70
2021/12/20 03:56:02;;;;;;;;;;;5.10;99.90;;;;;;4946979;28;20052;-70
2021/12/20 03:58:29;;;;;;;;;;;5.10;99.90;;;;;;4947547;28;20163;-70
2021/12/20 04:00:58;;;;;;;;;;;5.10;99.90;;;;;;4948185;28;20070;-70
2021/12/20 04:03:25;;;;;;;;;;;5.10;99.90;;;;;;4948028;28;21154;-70
2021/12/20 04:05:53;;;;;;;;;;;5.10;99.90;;;;;;4947622;28;20061;-70
2021/12/20 04:08:20;;;;;;;;;;;5.10;99.90;;;;;;4947452;28;20068;-70
2021/12/20 04:10:47;;;;;;;;;;;5.10;99.90;;;;;;4948116;28;20159;-70
2021/12/20 04:13:15;;;;;;;;;;;5.10;99.90;;;;;;4948337;28;20061;-71
2021/12/20 04:15:42;;;;;;;;;;;5.10;99.90;;;;;;4945764;28;20079;-70
2021/12/20 04:18:11;;;;;;;;;;;5.10;99.90;;;;;;4954027;28;21087;-70
2021/12/20 04:20:38;;;;;;;;;;;5.00;99.90;;;;;;4955965;28;20078;-70
2021/12/20 04:23:05;;;;;;;;;;;5.00;99.90;;;;;;4948437;28;21036;-70
2021/12/20 04:25:32;;;;;;;;;;;5.00;99.90;;;;;;4949097;28;21099;-71
2021/12/20 04:27:59;;;;;;;;;;;5.00;99.90;;;;;;4946653;28;20445;-70
2021/12/20 04:30:29;;;;;;;;;;;5.00;99.90;;;;;;4946918;28;20061;-70
2021/12/20 04:32:56;;;;;;;;;;;5.00;99.90;;;;;;4947856;28;20052;-70
2021/12/20 04:35:24;;;;;;;;;;;5.00;99.90;;;;;;4947140;28;20076;-69
2021/12/20 04:37:52;;;;;;;;;;;5.00;99.90;;;;;;4947443;28;20088;-69
2021/12/20 04:40:21;;;;;;;;;;;5.00;99.90;;;;;;4947896;28;20053;-69
2021/12/20 04:42:49;;;;;;;;;;;5.00;99.90;;;;;;4947408;28;21127;-69
2021/12/20 04:45:16;;;;;;;;;;;5.00;99.90;;;;;;4952154;28;21143;-69
2021/12/20 04:47:43;;;;;;;;;;;5.00;99.90;;;;;;4951211;28;20070;-69
2021/12/20 04:50:10;;;;;;;;;;;5.00;99.90;;;;;;4951404;28;20052;-69
2021/12/20 04:52:41;;;;;;;;;;;5.00;99.90;;;;;;4951528;28;20170;-69
2021/12/20 04:55:08;;;;;;;;;;;5.00;99.90;;;;;;4950448;28;20156;-69
2021/12/20 04:57:35;;;;;;;;;;;5.00;99.90;;;;;;4950072;28;20052;-69
2021/12/20 05:00:03;;;;;;;;;;;5.00;99.90;;;;;;4950952;28;21079;-69
2021/12/20 05:02:30;;;;;;;;;;;5.00;99.90;;;;;;4951622;28;20070;-70
2021/12/20 05:04:58;;;;;;;;;;;5.10;99.90;;;;;;4949987;28;20069;-69
2021/12/20 05:07:26;;;;;;;;;;;5.10;99.90;;;;;;4950371;28;20142;-69
2021/12/20 05:09:59;;;;;;;;;;;5.10;99.90;;;;;;4950368;28;20080;-70
2021/12/20 05:12:26;;;;;;;;;;;5.10;99.90;;;;;;4951843;28;20052;-70
2021/12/20 05:14:53;;;;;;;;;;;5.10;99.90;;;;;;4950749;28;20117;-69
2021/12/20 05:17:21;;;;;;;;;;;5.20;99.90;;;;;;4950865;28;20061;-69
2021/12/20 05:19:48;;;;;;;;;;;5.20;99.90;;;;;;4950271;28;20060;-70
2021/12/20 05:22:15;;;;;;;;;;;5.10;99.90;;;;;;4950253;28;21186;-69
2021/12/20 05:24:42;;;;;;;;;;;5.10;99.90;;;;;;4950212;28;20068;-69
2021/12/20 05:27:11;;;;;;;;;;;5.10;99.90;;;;;;4949574;28;20195;-69
2021/12/20 05:29:38;;;;;;;;;;;5.10;99.90;;;;;;4950284;28;20142;-69
2021/12/20 05:32:06;;;;;;;;;;;5.10;99.90;;;;;;4949969;28;20060;-69
2021/12/20 05:34:33;;;;;;;;;;;5.10;99.90;;;;;;4949950;28;20059;-70
2021/12/20 05:37:01;;;;;;;;;;;5.10;99.90;;;;;;4949095;28;20060;-69
2021/12/20 05:39:28;;;;;;;;;;;5.10;99.90;;;;;;4949561;28;20068;-69
2021/12/20 05:41:55;;;;;;;;;;;5.10;99.90;;;;;;4949726;28;20126;-70
2021/12/20 05:44:24;;;;;;;;;;;5.10;99.90;;;;;;4949744;28;20061;-70
2021/12/20 05:46:52;;;;;;;;;;;5.10;99.90;;;;;;4948947;28;20068;-70
2021/12/20 05:49:19;;;;;;;;;;;5.10;99.90;;;;;;4948335;28;21158;-69
2021/12/20 05:51:46;;;;;;;;;;;5.10;99.90;;;;;;4950129;28;20159;-70
2021/12/20 05:54:14;;;;;;;;;;;5.10;99.90;;;;;;4949454;28;21186;-70
2021/12/20 05:56:41;;;;;;;;;;;5.10;99.90;;;;;;4947663;28;20276;-70
2021/12/20 05:59:08;;;;;;;;;;;5.10;99.90;;;;;;4948686;28;20151;-70
2021/12/20 06:01:37;;;;;;;;;;;5.00;99.90;;;;;;4944170;28;20069;-70
2021/12/20 06:04:04;;;;;;;;;;;5.10;99.90;;;;;;4954625;28;20154;-69
2021/12/20 06:06:32;;;;;;;;;;;5.10;99.90;;;;;;4961896;28;20076;-70
2021/12/20 06:08:59;;;;;;;;;;;5.00;99.90;;;;;;4968508;28;20066;-68
2021/12/20 06:11:26;;;;;;;;;;;5.00;99.90;;;;;;4959538;28;20220;-70
2021/12/20 06:13:53;;;;;;;;;;;5.00;99.90;;;;;;4948941;28;20142;-70
2021/12/20 06:16:20;;;;;;;;;;;4.90;99.90;;;;;;4948596;28;20188;-70
2021/12/20 06:18:51;;;;;;;;;;;4.90;99.90;;;;;;4948502;28;20159;-70
2021/12/20 06:21:18;;;;;;;;;;;4.90;99.90;;;;;;4929507;28;20069;-70
2021/12/20 06:23:45;;;;;;;;;;;4.90;99.90;;;;;;4929325;28;20146;-70
2021/12/20 06:26:12;;;;;;;;;;;4.90;99.90;;;;;;4929233;28;20146;-70
2021/12/20 06:28:39;;;;;;;;;;;4.80;99.90;;;;;;4928553;28;20098;-70
2021/12/20 06:31:07;;;;;;;;;;;4.80;99.90;;;;;;4928666;28;20061;-70
2021/12/20 06:33:34;;;;;;;;;;;4.80;99.90;;;;;;4929246;28;20053;-70
2021/12/20 06:36:03;;;;;;;;;;;4.80;99.90;;;;;;4947043;28;20195;-70
2021/12/20 06:38:31;;;;;;;;;;;4.80;99.90;;;;;;4951187;28;21195;-70
2021/12/20 06:40:59;;;;;;;;;;;4.80;99.90;;;;;;4948949;28;20061;-70
2021/12/20 06:43:26;;;;;;;;;;;4.80;99.90;;;;;;4948941;28;20151;-70
2021/12/20 06:45:53;;;;;;;;;;;4.70;99.90;;;;;;4948045;28;20061;-70
2021/12/20 06:48:20;;;;;;;;;;;4.70;99.90;;;;;;4947923;28;20141;-70
2021/12/20 06:50:47;;;;;;;;;;;4.70;99.90;;;;;;4948474;28;20052;-70
2021/12/20 06:53:15;;;;;;;;;;;4.70;99.90;;;;;;4948006;28;20143;-71
2021/12/20 06:55:43;;;;;;;;;;;4.70;99.90;;;;;;4947039;28;21260;-70
2021/12/20 06:58:10;;;;;;;;;;;4.70;99.90;;;;;;4947703;28;20067;-72
2021/12/20 07:00:37;;;;;;;;;;;4.70;99.90;;;;;;4948181;28;21279;-70
2021/12/20 07:03:04;;;;;;;;;;;4.70;99.90;;;;;;4948136;28;20060;-70
2021/12/20 07:05:32;;;;;;;;;;;4.60;99.90;;;;;;4947046;28;20195;-70
2021/12/20 07:07:59;;;;;;;;;;;4.70;99.90;;;;;;4949257;28;20195;-70
2021/12/20 07:10:28;;;;;;;;;;;4.70;99.90;;;;;;4957847;28;20087;-70
2021/12/20 07:12:56;;;;;;;;;;;4.70;99.90;;;;;;4966284;28;20150;-71
2021/12/20 07:15:25;;;;;;;;;;;4.70;99.90;;;;;;4967038;28;20074;-70
2021/12/20 07:17:52;;;;;;;;;;;4.70;99.90;;;;;;4967035;28;20068;-70
2021/12/20 07:20:19;;;;;;;;;;;4.70;99.90;;;;;;4967493;28;20100;-70
2021/12/20 07:22:46;;;;;;;;;;;4.70;99.90;;;;;;4967168;28;21088;-70
2021/12/20 07:25:13;;;;;;;;;;;4.70;99.90;;;;;;4966480;28;21087;-70
2021/12/20 07:27:42;;;;;;;;;;;4.70;99.90;;;;;;4966345;28;20060;-70
2021/12/20 07:30:09;;;;;;;;;;;4.70;99.90;;;;;;4966984;28;20054;-70
2021/12/20 07:32:36;;;;;;;;;;;4.70;99.90;;;;;;4966785;28;20067;-70
2021/12/20 07:35:04;;;;;;;;;;;4.80;99.90;;;;;;4966662;28;21131;-70
2021/12/20 07:37:31;;;;;;;;;;;4.80;99.90;;;;;;4966220;28;20158;-70
2021/12/20 07:39:58;;;;;;;;;;;4.70;99.90;;;;;;4965731;28;20060;-75
2021/12/20 07:42:25;;;;;;;;;;;4.70;99.90;;;;;;4967017;28;20069;-71
2021/12/20 07:44:54;;;;;;;;;;;4.70;99.90;;;;;;4966982;28;20083;-70
2021/12/20 07:47:22;;;;;;;;;;;4.70;99.90;;;;;;4966156;28;20052;-70
2021/12/20 07:49:49;;;;;;;;;;;4.70;99.90;;;;;;4966101;28;20069;-70
2021/12/20 07:52:16;;;;;;;;;;;4.70;99.90;;;;;;4966120;28;20075;-70
2021/12/20 07:54:43;;;;;;;;;;;4.70;99.90;;;;;;4966351;28;20100;-70
2021/12/20 07:57:10;;;;;;;;;;;4.70;99.90;;;;;;4966350;28;20083;-71
2021/12/20 07:59:37;;;;;;;;;;;4.70;99.90;;;;;;4966452;28;21169;-70
2021/12/20 08:02:06;;;;;;;;;;;4.70;99.90;;;;;;4966526;28;21098;-71
2021/12/20 08:04:33;;;;;;;;;;;4.70;99.90;;;;;;4965880;28;20052;-70
2021/12/20 08:07:01;;;;;;;;;;;4.70;99.90;;;;;;4965648;28;20100;-70
2021/12/20 08:09:28;;;;;;;;;;;4.70;99.90;;;;;;4966171;28;20081;-70
2021/12/20 08:11:55;;;;;;;;;;;4.70;99.90;;;;;;4965986;28;21051;-70
2021/12/20 08:14:22;;;;;;;;;;;4.80;99.90;;;;;;4958598;28;20077;-70
2021/12/20 08:16:49;;;;;;;;;;;4.70;99.90;;;;;;4948295;28;20076;-70
2021/12/20 08:19:17;;;;;;;;;;;4.80;99.90;;;;;;4953015;28;20163;-70
2021/12/20 08:21:45;;;;;;;;;;;4.80;99.90;;;;;;4951004;28;21040;-70
2021/12/20 08:24:12;;;;;;;;;;;4.80;99.90;;;;;;4950948;28;21146;-70
2021/12/20 08:26:39;;;;;;;;;;;4.80;99.90;;;;;;4949843;28;20069;-70
2021/12/20 08:29:06;;;;;;;;;;;4.80;99.90;;;;;;4953407;28;20068;-70
2021/12/20 08:31:33;;;;;;;;;;;4.90;99.90;;;;;;4950818;28;20060;-70
2021/12/20 08:34:00;;;;;;;;;;;4.90;99.90;;;;;;4949995;28;20061;-70
2021/12/20 08:36:29;;;;;;;;;;;4.90;99.90;;;;;;4950190;28;20172;-70
2021/12/20 08:38:56;;;;;;;;;;;5.00;99.90;;;;;;4950019;28;20061;-70
2021/12/20 08:41:23;;;;;;;;;;;5.00;99.90;;;;;;4950443;28;20139;-70
2021/12/20 08:43:50;;;;;;;;;;;5.00;99.90;;;;;;4950351;28;20124;-70
2021/12/20 08:46:18;;;;;;;;;;;5.00;99.90;;;;;;4949689;28;20053;-70
2021/12/20 08:48:46;;;;;;;;;;;5.10;99.90;;;;;;4949680;28;20069;-70
2021/12/20 08:51:13;;;;;;;;;;;5.10;99.90;;;;;;4950735;28;20154;-70
2021/12/20 08:53:42;;;;;;;;;;;5.10;99.90;;;;;;4950133;28;20141;-70
2021/12/20 08:56:09;;;;;;;;;;;5.20;99.90;;;;;;4949906;28;20066;-70
2021/12/20 08:58:36;;;;;;;;;;;5.20;99.90;;;;;;4949352;28;20091;-70
2021/12/20 09:01:04;;;;;;;;;;;5.30;99.90;;;;;;4952301;28;21165;-70
2021/12/20 09:03:31;;;;;;;;;;;5.30;99.90;;;;;;4959795;28;20175;-70
2021/12/20 09:05:58;;;;;;;;;;;5.40;99.90;;;;;;4969366;28;20152;-70
2021/12/20 09:08:25;;;;;;;;;;;5.40;99.90;;;;;;4968981;28;20227;-70
2021/12/20 09:10:54;;;;;;;;;;;5.40;99.90;;;;;;4960328;28;20132;-70
2021/12/20 09:13:23;;;;;;;;;;;5.40;99.90;;;;;;4953086;28;21647;-70
2021/12/20 09:15:51;;;;;;;;;;;5.50;99.90;;;;;;4957496;28;20176;-70
2021/12/20 09:18:19;;;;;;;;;;;5.50;99.90;;;;;;4961134;28;21027;-70
2021/12/20 09:20:46;;;;;;;;;;;5.50;99.90;;;;;;4970214;28;20070;-70
2021/12/20 09:23:14;;;;;;;;;;;5.60;99.90;;;;;;4969839;28;21040;-70
2021/12/20 09:25:43;;;;;;;;;;;5.60;99.90;;;;;;4959121;28;20588;-70
2021/12/20 09:28:12;;;;;;;;;;;5.70;99.90;;;;;;4952707;28;20078;-70
2021/12/20 09:30:40;;;;;;;;;;;5.70;99.90;;;;;;4953092;28;20109;-70
2021/12/20 09:33:07;;;;;;;;;;;5.70;99.90;;;;;;4957144;28;20086;-70
2021/12/20 09:35:35;;;;;;;;;;;5.80;99.90;;;;;;4968631;28;20071;-70
2021/12/20 09:38:05;;;;;;;;;;;5.80;99.90;;;;;;4968265;28;20086;-70
2021/12/20 09:40:36;;;;;;;;;;;5.80;99.90;;;;;;4969148;28;20335;-70
2021/12/20 09:43:06;;;;;;;;;;;5.90;99.90;;;;;;4968503;28;20257;-70
2021/12/20 09:45:35;;;;;;;;;;;6.00;99.90;;;;;;4964483;28;20200;-70
2021/12/20 09:48:02;;;;;;;;;;;6.00;99.90;;;;;;4954572;28;20084;-70
2021/12/20 09:50:29;;;;;;;;;;;6.00;99.90;;;;;;4953543;28;21173;-70
2021/12/20 09:52:56;;;;;;;;;;;6.10;99.90;;;;;;4961772;28;20150;-70
2021/12/20 09:55:23;;;;;;;;;;;6.10;99.90;;;;;;4947940;28;21276;-70
2021/12/20 09:57:51;;;;;;;;;;;6.10;99.90;;;;;;4945269;28;20072;-71
2021/12/20 10:00:19;;;;;;;;;;;6.10;99.90;;;;;;4959824;28;20093;-70
2021/12/20 10:02:48;;;;;;;;;;;6.20;99.90;;;;;;4987903;28;20226;-70
2021/12/20 10:05:17;;;;;;;;;;;6.40;99.90;;;;;;4968243;28;20067;-71
2021/12/20 10:07:48;;;;;;;;;;;6.60;99.90;;;;;;4967352;28;20069;-70
2021/12/20 10:10:34;;;;;;;;;;;6.70;99.90;;;;;;4969112;28;20074;-70
2021/12/20 10:13:01;;;;;;;;;;;6.90;99.90;;;;;;4969039;28;20060;-70
2021/12/20 10:15:32;;;;;;;;;;;7.00;99.90;;;;;;4967957;28;20117;-71
2021/12/20 10:18:01;;;;;;;;;;;7.10;99.90;;;;;;4964319;28;20149;-70
2021/12/20 10:20:29;;;;;;;;;;;7.20;99.90;;;;;;4956528;28;20069;-71
2021/12/20 10:23:08;;;;;;;;;;;7.30;99.90;;;;;;4969869;28;21043;-70
2021/12/20 10:25:36;;;;;;;;;;;7.30;99.90;;;;;;4960995;28;20166;-71
2021/12/20 10:28:07;;;;;;;;;;;7.50;99.90;;;;;;4963255;28;20086;-71
2021/12/20 10:30:37;;;;;;;;;;;7.50;99.90;;;;;;4969153;28;21011;-71
2021/12/20 10:33:08;;;;;;;;;;;7.80;99.90;;;;;;4969558;28;20060;-71
2021/12/20 10:35:35;;;;;;;;;;;;;;;;;;4969191;28;21136;-71
2021/12/20 10:38:05;;;;;;;;;;;8.60;99.90;;;;;;4988014;28;20699;-71
2021/12/20 10:40:32;;;;;;;;;;;10.90;99.90;;;;;;4969989;28;20069;-71
2021/12/20 10:43:00;;;;;;;;;;;13.30;99.90;;;;;;4969566;28;20059;-71
2021/12/20 10:45:28;;;;;;;;;;;15.40;99.90;;;;;;4968852;28;20083;-69
2021/12/20 10:47:55;;;;;;;;;;;17.00;99.90;;;;;;4968957;28;21073;-69
2021/12/20 10:50:28;;;;;;;;;;;18.60;99.90;;;;;;4969599;28;21114;-69
2021/12/20 10:53:10;;;;;;;;;;;19.30;99.90;;;;;;4969753;28;20077;-69
2021/12/20 10:55:38;;;;;;;;;;;20.20;99.90;;;;;;4968364;28;20076;-70
2021/12/20 10:58:19;;;;;;;;;;;21.10;99.90;;;;;;4968562;28;20061;-69
2021/12/20 11:00:46;;;;;;;;;;;21.10;99.90;;;;;;4967624;28;20060;-69
2021/12/20 11:03:28;;;;;;;;;;;21.20;99.90;;;;;;4967101;28;20150;-69
2021/12/20 11:11:28;;;;;;;;;;;22.40;99.90;;;;;;4967457;28;20065;-69
2021/12/20 11:13:55;;;;;;;;;;;20.90;99.90;;;;;;4966852;28;20100;-68
2021/12/20 11:16:25;;;;;;;;;;;21.10;99.90;;;;;;4966430;28;21145;-72
2021/12/20 11:19:08;;;;;;;;;;;21.50;99.90;;;;;;4950710;28;20102;-68
2021/12/20 11:21:38;;;;;;;;;;;22.20;99.90;;;;;;4950590;28;20077;-69
2021/12/20 11:24:11;;;;;;;;;;;22.90;99.90;;;;;;4948973;28;20167;-69
2021/12/20 11:26:39;;;;;;;;;;;23.50;99.90;;;;;;4950632;28;20158;-69
2021/12/20 11:29:06;;;;;;;;;;;23.90;99.90;;;;;;4951931;28;21222;-69
2021/12/20 11:31:33;;;;;;;;;;;23.90;99.90;;;;;;4947734;28;20634;-69
2021/12/20 11:34:00;;;;;;;;;;;23.80;99.90;;;;;;4947593;28;20076;-69
2021/12/20 11:36:27;;;;;;;;;;;24.10;99.90;;;;;;4947411;28;20069;-69
2021/12/20 11:38:58;;;;;;;;;;;24.40;99.90;;;;;;4946651;28;20151;-69
2021/12/20 11:41:26;;;;;;;;;;;24.60;99.90;;;;;;4947646;28;21053;-69
2021/12/20 11:43:53;;;;;;;;;;;24.30;99.90;;;;;;4948699;28;20063;-69
2021/12/20 11:46:21;;;;;;;;;;;24.40;99.90;;;;;;4948088;28;20059;-69
2021/12/20 11:48:50;;;;;;;;;;;24.30;99.90;;;;;;4946918;28;21065;-69
2021/12/20 11:51:17;;;;;;;;;;;23.70;99.90;;;;;;4955460;28;20191;-71
2021/12/20 11:53:44;;;;;;;;;;;23.60;99.90;;;;;;4965768;28;20162;-71
2021/12/20 11:56:13;;;;;;;;;;;23.60;99.90;;;;;;4970904;28;21238;-71
2021/12/20 11:58:46;;;;;;;;;;;23.80;99.90;;;;;;4968809;28;21035;-71
2021/12/20 12:01:15;;;;;;;;;;;23.60;99.90;;;;;;4971382;28;20068;-71
2021/12/20 12:03:51;;;;;;;;;;;23.50;99.90;;;;;;4970311;28;20163;-71
2021/12/20 12:06:24;;;;;;;;;;;23.20;99.90;;;;;;4970888;28;20068;-71
2021/12/20 12:08:57;;;;;;;;;;;23.40;99.90;;;;;;4970343;28;20145;-71
2021/12/20 12:11:29;;;;;;;;;;;24.00;99.90;;;;;;4970786;28;20170;-71
2021/12/20 12:14:20;;;;;;;;;;;23.10;99.90;;;;;;4970564;28;20305;-71
2021/12/20 12:16:53;;;;;;;;;;;20.40;99.90;;;;;;4970899;28;20060;-71
2021/12/20 12:19:35;;;;;;;;;;;19.50;99.90;;;;;;4970257;28;20316;-71
2021/12/20 12:22:02;;;;;;;;;;;17.50;99.90;;;;;;4968522;28;20194;-70
2021/12/20 12:24:43;;;;;;;;;;;15.80;99.90;;;;;;4970645;28;20061;-70
2021/12/20 12:27:21;;;;;;;;;;;14.10;99.90;;;;;;4971041;28;20075;-70
2021/12/20 12:30:11;;;;;;;;;;;12.80;99.90;;;;;;4969736;28;20075;-70
2021/12/20 12:32:38;;;;;;;;;;;12.40;99.90;;;;;;4970168;28;20060;-70
2021/12/20 12:35:05;;;;;;;;;;;11.80;99.90;;;;;;4970584;28;20162;-71
2021/12/20 12:37:36;;;;;;;;;;;11.50;99.90;;;;;;4969893;28;20085;-70
2021/12/20 12:40:22;;;;;;;;;;;10.80;99.90;;;;;;4969679;28;21091;-70
2021/12/20 12:42:55;;;;;;;;;;;10.40;99.90;;;;;;4970762;28;20097;-70
2021/12/20 12:45:37;;;;;;;;;;;10.20;99.90;;;;;;4969865;28;20051;-69
2021/12/20 12:48:26;;;;;;;;;;;10.10;99.90;;;;;;4968203;28;20052;-70
2021/12/20 12:50:53;;;;;;;;;;;10.00;99.90;;;;;;4968810;28;21040;-70
2021/12/20 12:53:35;;;;;;;;;;;12.70;99.90;;;;;;4970312;28;20052;-70
2021/12/20 12:56:17;;;;;;;;;;;16.10;99.90;;;;;;4969848;28;20065;-70
2021/12/20 12:58:46;;;;;;;;;;;16.50;99.90;;;;;;4967643;28;21104;-70
2021/12/20 13:01:20;;;;;;;;;;;14.10;99.90;;;;;;4969723;28;20162;-70
2021/12/20 13:03:48;;;;;;;;;;;12.70;99.90;;;;;;4968835;28;20270;-70
2021/12/20 13:06:19;;;;;;;;;;;12.00;99.90;;;;;;4969124;28;20075;-70
2021/12/20 13:08:51;;;;;;;;;;;13.20;99.90;;;;;;4969324;28;20166;-70
2021/12/20 13:11:20;;;;;;;;;;;13.20;99.90;;;;;;4958858;28;20060;-70
2021/12/20 13:13:55;;;;;;;;;;;12.20;99.90;;;;;;4950244;28;20060;-70
2021/12/20 13:16:26;;;;;;;;;;;11.80;99.90;;;;;;4949770;28;20059;-70
2021/12/20 13:18:58;;;;;;;;;;;12.30;99.90;;;;;;4950078;28;20076;-70
2021/12/20 13:21:37;;;;;;;;;;;11.50;99.90;;;;;;4949428;28;21164;-70
2021/12/20 13:24:14;;;;;;;;;;;11.00;99.90;;;;;;4949880;28;20256;-70
2021/12/20 13:26:41;;;;;;;;;;;10.70;99.90;;;;;;4949763;28;20064;-70
2021/12/20 13:29:14;;;;;;;;;;;10.40;99.90;;;;;;4948992;28;21134;-70
2021/12/20 13:31:43;;;;;;;;;;;10.20;99.90;;;;;;4949798;28;20113;-70
2021/12/20 13:34:14;;;;;;;;;;;;;;;;;;4949219;28;20059;-70
2021/12/20 13:36:50;;;;;;;;;;;10.70;99.90;;;;;;4982360;28;20058;-69
2021/12/20 13:39:18;;;;;;;;;;;10.60;99.90;;;;;;4949827;28;20060;-70
2021/12/20 13:41:45;;;;;;;;;;;10.40;99.90;;;;;;4950075;28;20061;-70
2021/12/20 13:44:16;;;;;;;;;;;11.00;99.90;;;;;;4949128;28;20069;-70
2021/12/20 13:46:44;;;;;;;;;;;13.70;99.90;;;;;;4981177;28;20058;-70
2021/12/20 13:49:11;;;;;;;;;;;13.40;99.90;;;;;;4948813;28;20052;-70
2021/12/20 13:51:40;;;;;;;;;;;14.30;99.90;;;;;;4949367;28;20062;-70
2021/12/20 13:54:22;;;;;;;;;;;14.90;99.90;;;;;;4946420;28;20069;-70
2021/12/20 13:56:53;;;;;;;;;;;13.20;99.90;;;;;;4942993;28;20109;-69
2021/12/20 13:59:27;;;;;;;;;;;12.00;99.90;;;;;;4955097;28;20069;-70
2021/12/20 14:01:54;;;;;;;;;;;12.70;99.90;;;;;;4942254;28;20130;-70
2021/12/20 14:04:35;;;;;;;;;;;12.60;99.90;;;;;;4961851;22;20040;-71
2021/12/20 14:07:03;;;;;;;;;;;11.90;99.90;;;;;;4978542;28;20069;-72
2021/12/20 14:09:38;;;;;;;;;;;12.00;99.90;;;;;;4959411;28;20069;-72
2021/12/20 14:12:13;;;;;;;;;;;11.40;99.90;;;;;;4991389;28;20066;-72
2021/12/20 14:15:04;;;;;;;;;;;12.70;99.90;;;;;;4953822;28;20207;-72
2021/12/20 14:17:50;;;;;;;;;;;13.80;99.90;;;;;;4953797;28;21326;-73
2021/12/20 14:20:17;;;;;;;;;;;15.10;99.90;;;;;;4952409;28;20182;-70
2021/12/20 14:22:51;;;;;;;;;;;15.70;99.90;;;;;;4951231;28;20097;-73
2021/12/20 14:25:18;;;;;;;;;;;15.00;99.90;;;;;;4959582;28;20060;-72
2021/12/20 14:27:59;;;;;;;;;;;13.10;99.90;;;;;;4965857;28;21165;-72
2021/12/20 14:30:26;;;;;;;;;;;11.80;99.90;;;;;;4968326;28;20159;-71
2021/12/20 14:32:55;;;;;;;;;;;10.60;99.90;;;;;;4948714;28;20061;-69
2021/12/20 14:35:29;;;;;;;;;;;9.60;99.90;;;;;;4947274;28;20133;-71
2021/12/20 14:37:57;;;;;;;;;;;8.90;99.90;;;;;;4948847;28;20080;-72
2021/12/20 14:40:43;;;;;;;;;;;8.30;99.90;;;;;;4948965;28;20163;-72
2021/12/20 14:43:14;;;;;;;;;;;8.20;99.90;;;;;;4958131;28;21164;-71
2021/12/20 14:45:41;;;;;;;;;;;7.90;99.90;;;;;;4951203;28;20077;-71
2021/12/20 14:48:18;;;;;;;;;;;7.90;99.90;;;;;;4980229;28;21153;-71
2021/12/20 14:50:46;;;;;;;;;;;8.00;99.90;;;;;;4950075;28;20060;-71
2021/12/20 14:53:14;;;;;;;;;;;8.40;99.90;;;;;;4948212;28;21030;-72
2021/12/20 14:55:41;;;;;;;;;;;8.70;99.90;;;;;;4948701;28;20069;-70
2021/12/20 14:58:08;;;;;;;;;;;9.00;99.90;;;;;;4954292;28;20192;-72
2021/12/20 15:00:36;;;;;;;;;;;9.00;99.90;;;;;;4958360;28;20069;-72